createdAt,value
2023-01-07T00:01:42.346Z,53.27
2023-01-07T00:04:13.541Z,52.30
2023-01-07T00:06:43.331Z,53.37
2023-01-07T00:09:16.688Z,53.97
2023-01-07T00:11:45.564Z,53.10
2023-01-07T00:14:16.185Z,53.30
2023-01-07T00:16:44.751Z,53.87
2023-01-07T00:19:15.709Z,52.77
2023-01-07T00:21:44.254Z,53.03
2023-01-07T00:24:13.066Z,54.03
2023-01-07T00:26:41.898Z,53.97
2023-01-07T00:29:10.630Z,53.80
2023-01-07T00:31:41.542Z,53.83
2023-01-07T00:34:10.354Z,54.00
2023-01-07T00:36:41.441Z,55.57
2023-01-07T00:39:13.111Z,54.80
2023-01-07T00:41:41.260Z,54.30
2023-01-07T00:44:10.317Z,53.97
2023-01-07T00:46:39.791Z,54.10
2023-01-07T00:49:07.908Z,53.67
2023-01-07T00:51:36.015Z,54.17
2023-01-07T00:54:04.290Z,53.63
2023-01-07T00:56:33.643Z,53.27
2023-01-07T00:59:01.828Z,54.57
2023-01-07T01:01:30.290Z,54.27
2023-01-07T01:03:59.890Z,54.20
2023-01-07T01:06:27.983Z,54.87
2023-01-07T01:08:56.049Z,53.63
2023-01-07T01:11:24.270Z,53.63
2023-01-07T01:13:53.118Z,54.37
2023-01-07T01:16:21.318Z,55.13
2023-01-07T01:18:50.182Z,54.30
2023-01-07T01:21:19.633Z,54.23
2023-01-07T01:23:47.955Z,55.63
2023-01-07T01:26:18.125Z,55.23
2023-01-07T01:28:46.633Z,54.13
2023-01-07T01:31:19.920Z,52.93
2023-01-07T01:33:54.724Z,52.53
2023-01-07T01:36:24.810Z,52.07
2023-01-07T01:38:55.091Z,52.67
2023-01-07T01:41:23.402Z,50.90
2023-01-07T01:43:53.996Z,50.93
2023-01-07T01:46:32.224Z,50.07
2023-01-07T01:49:04.908Z,49.80
2023-01-07T01:51:40.370Z,48.40
2023-01-07T01:54:12.533Z,45.47
2023-01-07T01:56:48.518Z,43.60
2023-01-07T01:59:20.098Z,44.13
2023-01-07T02:01:48.797Z,44.17
2023-01-07T02:04:23.019Z,46.57
2023-01-07T02:06:59.216Z,45.33
2023-01-07T02:09:29.397Z,43.73
2023-01-07T02:12:09.190Z,44.30
2023-01-07T02:15:03.837Z,44.70
2023-01-07T02:17:45.649Z,45.10
2023-01-07T02:20:44.147Z,46.33
2023-01-07T02:23:43.564Z,46.60
2023-01-07T02:26:40.894Z,47.47
2023-01-07T02:29:37.118Z,46.27
2023-01-07T02:32:26.741Z,46.93
2023-01-07T02:35:06.391Z,47.63
2023-01-07T02:37:46.899Z,46.33
2023-01-07T02:40:22.253Z,46.80
2023-01-07T02:43:03.051Z,46.13
2023-01-07T02:45:33.959Z,46.47
2023-01-07T02:48:06.835Z,46.40
2023-01-07T02:50:35.486Z,45.50
2023-01-07T02:53:03.561Z,45.90
2023-01-07T02:55:40.870Z,45.03
2023-01-07T02:58:33.925Z,46.30
2023-01-07T03:01:22.823Z,46.03
2023-01-07T03:04:11.510Z,46.40
2023-01-07T03:06:54.505Z,46.40
2023-01-07T03:09:30.803Z,47.40
2023-01-07T03:12:08.755Z,46.23
2023-01-07T03:14:43.520Z,45.23
2023-01-07T03:17:18.419Z,44.53
2023-01-07T03:19:52.379Z,46.10
2023-01-07T03:22:23.691Z,44.47
2023-01-07T03:24:54.213Z,44.33
2023-01-07T03:27:24.906Z,44.83
2023-01-07T03:29:56.150Z,43.47
2023-01-07T03:32:27.382Z,45.70
2023-01-07T03:34:57.492Z,47.40
2023-01-07T03:37:27.767Z,47.03
2023-01-07T03:39:58.585Z,48.63
2023-01-07T03:42:42.256Z,48.60
2023-01-07T03:45:17.655Z,50.23
2023-01-07T03:47:48.375Z,51.27
2023-01-07T03:50:19.769Z,52.07
2023-01-07T03:52:49.591Z,51.57
2023-01-07T03:55:19.557Z,51.37
2023-01-07T03:57:49.573Z,53.57
2023-01-07T04:00:18.798Z,54.20
2023-01-07T04:02:54.888Z,53.37
2023-01-07T04:05:29.090Z,53.03
2023-01-07T04:07:57.173Z,54.23
2023-01-07T04:10:27.033Z,55.83
2023-01-07T04:12:55.242Z,56.37
2023-01-07T04:15:23.812Z,58.17
2023-01-07T04:17:52.151Z,58.63
2023-01-07T04:20:20.399Z,60.00
2023-01-07T04:22:49.874Z,60.27
2023-01-07T04:25:18.421Z,60.60
2023-01-07T04:27:46.791Z,62.80
2023-01-07T04:30:15.059Z,63.63
2023-01-07T04:32:43.208Z,62.57
2023-01-07T04:35:12.033Z,63.43
2023-01-07T04:37:40.623Z,64.07
2023-01-07T04:40:11.545Z,62.60
2023-01-07T04:42:40.170Z,64.17
2023-01-07T04:45:10.563Z,64.83
2023-01-07T04:47:38.887Z,66.23
2023-01-07T04:50:09.039Z,66.80
2023-01-07T04:52:37.964Z,66.83
2023-01-07T04:55:07.989Z,67.67
2023-01-07T04:57:37.606Z,67.83
2023-01-07T05:00:07.476Z,68.43
2023-01-07T05:02:35.970Z,67.40
2023-01-07T05:05:04.360Z,68.40
2023-01-07T05:07:33.067Z,64.40
2023-01-07T05:10:02.058Z,69.77
2023-01-07T05:12:34.879Z,72.67
2023-01-07T05:15:06.069Z,65.07
2023-01-07T05:17:35.962Z,71.27
2023-01-07T05:20:06.656Z,72.10
2023-01-07T05:22:35.695Z,71.50
2023-01-07T05:25:04.512Z,69.30
2023-01-07T05:27:33.151Z,69.37
2023-01-07T05:30:02.138Z,69.20
2023-01-07T05:32:31.634Z,67.63
2023-01-07T05:35:00.007Z,68.03
2023-01-07T05:37:28.545Z,69.53
2023-01-07T05:39:57.716Z,66.80
2023-01-07T05:42:25.955Z,68.90
2023-01-07T05:44:54.112Z,70.17
2023-01-07T05:47:22.243Z,71.47
2023-01-07T05:49:51.730Z,69.70
2023-01-07T05:52:19.813Z,70.97
2023-01-07T05:54:47.879Z,70.77
2023-01-07T05:57:15.937Z,68.70
2023-01-07T05:59:44.059Z,71.63
2023-01-07T06:02:12.092Z,72.50
2023-01-07T06:04:40.251Z,71.43
2023-01-07T06:07:09.774Z,74.70
2023-01-07T06:09:37.908Z,79.17
2023-01-07T06:12:06.360Z,80.80
2023-01-07T06:14:34.464Z,80.73
2023-01-07T06:17:02.579Z,81.97
2023-01-07T06:19:30.746Z,80.80
2023-01-07T06:21:59.578Z,85.73
2023-01-07T06:24:29.573Z,88.10
2023-01-07T06:26:57.730Z,87.90
2023-01-07T06:29:25.936Z,89.40
2023-01-07T06:31:54.039Z,99.00
2023-01-07T06:34:22.258Z,95.93
2023-01-07T06:36:50.345Z,83.70
2023-01-07T06:39:18.491Z,84.07
2023-01-07T06:41:48.004Z,86.17
2023-01-07T06:44:16.268Z,86.20
2023-01-07T06:46:44.377Z,87.77
2023-01-07T06:49:12.735Z,87.60
2023-01-07T06:51:40.841Z,88.90
2023-01-07T06:54:09.021Z,87.47
2023-01-07T06:56:37.059Z,89.07
2023-01-07T06:59:06.587Z,87.27
2023-01-07T07:01:34.761Z,84.20
2023-01-07T07:04:03.037Z,81.97
2023-01-07T07:06:31.088Z,82.07
2023-01-07T07:08:59.183Z,82.33
2023-01-07T07:11:27.283Z,83.70
2023-01-07T07:13:55.439Z,86.37
2023-01-07T07:16:25.099Z,87.03
2023-01-07T07:18:54.193Z,86.40
2023-01-07T07:21:22.727Z,82.53
2023-01-07T07:23:50.806Z,83.73
2023-01-07T07:26:19.052Z,80.93
2023-01-07T07:28:47.099Z,79.10
2023-01-07T07:31:15.230Z,76.87
2023-01-07T07:33:44.739Z,72.87
2023-01-07T07:36:12.789Z,73.47
2023-01-07T07:38:40.950Z,73.00
2023-01-07T07:41:09.034Z,73.67
2023-01-07T07:43:37.387Z,71.93
2023-01-07T07:46:05.950Z,72.20
2023-01-07T07:48:34.262Z,71.33
2023-01-07T07:51:07.021Z,70.83
2023-01-07T07:53:35.194Z,68.10
2023-01-07T07:56:03.374Z,70.10
2023-01-07T07:58:31.472Z,69.03
2023-01-07T08:00:59.701Z,68.17
2023-01-07T08:03:27.890Z,67.03
2023-01-07T08:05:55.974Z,67.33
2023-01-07T08:08:25.558Z,66.20
2023-01-07T08:10:56.265Z,65.70
2023-01-07T08:13:24.740Z,65.87
2023-01-07T08:15:53.245Z,65.17
2023-01-07T08:18:21.336Z,65.17
2023-01-07T08:20:49.402Z,65.93
2023-01-07T08:23:18.036Z,66.67
2023-01-07T08:25:47.528Z,66.43
2023-01-07T08:28:15.709Z,68.47
2023-01-07T08:30:44.483Z,76.17
2023-01-07T08:33:12.873Z,69.90
2023-01-07T08:35:40.926Z,62.60
2023-01-07T08:38:10.493Z,53.87
2023-01-07T08:40:39.549Z,50.27
2023-01-07T08:43:10.001Z,54.67
2023-01-07T08:45:38.083Z,55.73
2023-01-07T08:48:06.694Z,51.33
2023-01-07T08:50:35.317Z,51.27
2023-01-07T08:53:03.511Z,55.27
2023-01-07T08:55:31.595Z,57.97
2023-01-07T08:57:59.779Z,58.73
2023-01-07T09:00:29.331Z,62.03
2023-01-07T09:02:57.439Z,62.37
2023-01-07T09:05:25.722Z,65.33
2023-01-07T09:07:54.578Z,59.70
2023-01-07T09:10:23.159Z,64.20
2023-01-07T09:12:51.553Z,58.57
2023-01-07T09:15:19.678Z,63.03
2023-01-07T09:17:49.207Z,65.67
2023-01-07T09:20:17.397Z,64.97
2023-01-07T09:22:45.735Z,63.60
2023-01-07T09:25:14.053Z,63.33
2023-01-07T09:27:43.374Z,62.60
2023-01-07T09:30:12.347Z,61.70
2023-01-07T09:32:40.484Z,60.67
2023-01-07T09:35:11.020Z,60.07
2023-01-07T09:37:39.230Z,57.00
2023-01-07T09:40:09.268Z,56.13
2023-01-07T09:42:46.704Z,55.80
2023-01-07T09:45:18.283Z,50.37
2023-01-07T09:47:49.276Z,50.20
2023-01-07T09:50:29.652Z,51.83
2023-01-07T09:53:01.789Z,56.03
2023-01-07T09:55:34.541Z,50.80
2023-01-07T09:58:02.976Z,51.57
2023-01-07T10:00:34.553Z,73.53
2023-01-07T10:03:14.467Z,49.87
2023-01-07T10:05:57.111Z,49.37
2023-01-07T10:08:35.332Z,48.60
2023-01-07T10:11:15.225Z,59.80
2023-01-07T10:13:55.955Z,80.23
2023-01-07T10:16:33.933Z,47.43
2023-01-07T10:19:09.455Z,47.23
2023-01-07T10:21:45.430Z,45.80
2023-01-07T10:24:22.007Z,45.60
2023-01-07T10:26:54.473Z,45.97
2023-01-07T10:29:31.014Z,45.90
2023-01-07T10:32:06.185Z,45.93
2023-01-07T10:34:38.697Z,44.73
2023-01-07T10:37:15.647Z,46.27
2023-01-07T10:39:52.586Z,44.50
2023-01-07T10:42:30.121Z,45.10
2023-01-07T10:45:22.720Z,42.87
2023-01-07T10:48:05.035Z,43.03
2023-01-07T10:51:01.135Z,42.67
2023-01-07T10:53:45.063Z,42.63
2023-01-07T10:56:24.506Z,41.80
2023-01-07T10:58:52.639Z,43.37
2023-01-07T11:01:26.059Z,38.60
2023-01-07T11:03:56.031Z,40.30
2023-01-07T11:06:33.091Z,38.50
2023-01-07T11:09:05.920Z,32.87
2023-01-07T11:11:34.963Z,36.47
2023-01-07T11:14:07.847Z,32.00
2023-01-07T11:16:49.249Z,31.93
2023-01-07T11:19:22.580Z,37.03
2023-01-07T11:21:52.270Z,35.63
2023-01-07T11:24:35.073Z,34.33
2023-01-07T11:27:14.137Z,30.10
2023-01-07T11:29:45.497Z,29.23
2023-01-07T11:32:22.613Z,27.73
2023-01-07T11:34:56.502Z,26.40
2023-01-07T11:37:38.454Z,25.33
2023-01-07T11:40:24.029Z,24.20
2023-01-07T11:42:55.129Z,25.30
2023-01-07T11:45:25.118Z,25.17
2023-01-07T11:48:08.705Z,24.27
2023-01-07T11:50:40.147Z,22.53
2023-01-07T11:53:32.558Z,22.40
2023-01-07T11:56:04.555Z,22.10
2023-01-07T11:58:34.504Z,21.30
2023-01-07T12:01:14.508Z,19.97
2023-01-07T12:03:45.382Z,20.33
2023-01-07T12:06:21.122Z,18.83
2023-01-07T12:08:56.201Z,20.17
2023-01-07T12:11:32.286Z,19.27
2023-01-07T12:14:08.802Z,17.60
2023-01-07T12:16:37.399Z,17.53
2023-01-07T12:19:22.730Z,16.10
2023-01-07T12:22:13.155Z,14.88
2023-01-07T12:25:03.126Z,13.18
2023-01-07T12:27:46.650Z,12.07
2023-01-07T12:30:47.453Z,12.20
2023-01-07T12:33:26.829Z,11.85
2023-01-07T12:35:59.211Z,13.95
2023-01-07T12:38:42.286Z,11.40
2023-01-07T12:41:19.717Z,11.40
2023-01-07T12:43:59.962Z,10.60
2023-01-07T12:46:32.217Z,10.25
2023-01-07T12:49:06.738Z,11.80
2023-01-07T12:51:41.132Z,10.95
2023-01-07T12:54:16.750Z,9.57
2023-01-07T12:56:49.226Z,10.70
2023-01-07T12:59:46.418Z,10.43
2023-01-07T13:02:21.040Z,10.55
2023-01-07T13:04:59.640Z,8.35
2023-01-07T13:07:36.854Z,7.88
2023-01-07T13:10:12.224Z,9.15
2023-01-07T13:12:46.289Z,8.27
2023-01-07T13:15:23.735Z,8.15
2023-01-07T13:17:54.198Z,7.85
2023-01-07T13:20:38.572Z,5.93
2023-01-07T13:23:08.836Z,5.28
2023-01-07T13:25:51.785Z,5.38
2023-01-07T13:28:40.879Z,7.97
2023-01-07T13:31:22.761Z,7.68
2023-01-07T13:34:00.665Z,8.23
2023-01-07T13:36:36.426Z,9.98
2023-01-07T13:39:45.112Z,10.80
2023-01-07T13:42:29.597Z,11.38
2023-01-07T13:45:02.932Z,12.07
2023-01-07T13:47:43.736Z,11.82
2023-01-07T13:50:21.177Z,10.85
2023-01-07T13:52:59.095Z,11.23
2023-01-07T13:55:46.103Z,11.02
2023-01-07T13:58:45.857Z,11.57
2023-01-07T14:01:15.464Z,11.10
2023-01-07T14:03:50.212Z,11.60
2023-01-07T14:06:43.571Z,11.52
2023-01-07T14:09:43.670Z,11.00
2023-01-07T14:12:40.010Z,11.55
2023-01-07T14:15:38.463Z,13.23
2023-01-07T14:18:37.240Z,11.88
2023-01-07T14:21:18.913Z,11.45
2023-01-07T14:23:58.456Z,12.65
2023-01-07T14:26:34.365Z,13.17
2023-01-07T14:29:34.946Z,13.82
2023-01-07T14:32:28.078Z,14.23
2023-01-07T14:34:59.644Z,15.73
2023-01-07T14:37:35.296Z,14.30
2023-01-07T14:40:56.519Z,14.47
2023-01-07T14:43:47.737Z,14.97
2023-01-07T14:46:52.068Z,16.13
2023-01-07T14:49:51.165Z,15.37
2023-01-07T14:52:45.061Z,16.93
2023-01-07T14:55:38.928Z,16.50
2023-01-07T14:58:38.217Z,16.33
2023-01-07T15:01:48.834Z,15.13
2023-01-07T15:05:03.693Z,17.03
2023-01-07T15:07:35.351Z,18.37
2023-01-07T15:10:36.174Z,16.90
2023-01-07T15:13:25.941Z,16.93
2023-01-07T15:16:06.401Z,17.13
2023-01-07T15:18:47.136Z,17.43
2023-01-07T15:21:24.263Z,16.43
2023-01-07T15:24:01.691Z,16.97
2023-01-07T15:26:41.438Z,19.03
2023-01-07T15:29:17.209Z,19.00
2023-01-07T15:31:55.938Z,20.27
2023-01-07T15:34:30.817Z,21.73
2023-01-07T15:36:59.338Z,20.70
2023-01-07T15:39:30.792Z,24.33
2023-01-07T15:42:01.511Z,22.40
2023-01-07T15:44:40.474Z,22.50
2023-01-07T15:47:37.600Z,24.40
2023-01-07T15:50:28.068Z,24.67
2023-01-07T15:52:58.132Z,24.60
2023-01-07T15:55:28.780Z,27.17
2023-01-07T15:58:04.219Z,25.87
2023-01-07T16:00:32.479Z,28.10
2023-01-07T16:03:01.159Z,28.20
2023-01-07T16:05:29.571Z,29.33
2023-01-07T16:07:59.440Z,29.57
2023-01-07T16:10:32.033Z,30.03
2023-01-07T16:13:03.042Z,30.93
2023-01-07T16:15:32.950Z,33.20
2023-01-07T16:18:02.788Z,33.90
2023-01-07T16:20:34.641Z,33.03
2023-01-07T16:23:19.322Z,34.83
2023-01-07T16:25:50.489Z,36.03
2023-01-07T16:28:22.406Z,37.00
2023-01-07T16:30:52.711Z,38.70
2023-01-07T16:33:23.693Z,41.87
2023-01-07T16:35:54.333Z,45.63
2023-01-07T16:38:23.256Z,46.07
2023-01-07T16:40:52.502Z,50.40
2023-01-07T16:43:45.319Z,53.20
2023-01-07T16:46:27.766Z,53.60
2023-01-07T16:49:21.724Z,55.37
2023-01-07T16:51:51.207Z,54.23
2023-01-07T16:54:33.579Z,54.77
2023-01-07T16:57:04.176Z,52.97
2023-01-07T16:59:35.506Z,53.37
2023-01-07T17:02:14.023Z,51.37
2023-01-07T17:04:42.445Z,51.43
2023-01-07T17:07:20.125Z,49.73
2023-01-07T17:09:48.701Z,50.00
2023-01-07T17:12:30.605Z,50.27
2023-01-07T17:15:00.622Z,52.70
2023-01-07T17:17:32.074Z,54.20
2023-01-07T17:20:19.912Z,61.70
2023-01-07T17:22:49.614Z,62.07
2023-01-07T17:25:24.590Z,62.20
2023-01-07T17:27:56.362Z,61.33
2023-01-07T17:30:34.395Z,64.00
2023-01-07T17:33:02.688Z,63.80
2023-01-07T17:35:30.916Z,65.67
2023-01-07T17:37:58.989Z,67.73
2023-01-07T17:40:27.090Z,70.70
2023-01-07T17:43:14.414Z,69.00
2023-01-07T17:45:43.953Z,68.83
2023-01-07T17:48:14.660Z,70.77
2023-01-07T17:50:43.848Z,72.17
2023-01-07T17:53:22.838Z,69.10
2023-01-07T17:55:51.103Z,67.53
2023-01-07T17:58:28.913Z,72.47
2023-01-07T18:01:00.180Z,70.53
2023-01-07T18:03:28.900Z,70.23
2023-01-07T18:05:57.079Z,68.03
2023-01-07T18:08:25.358Z,69.53
2023-01-07T18:11:11.313Z,71.80
2023-01-07T18:13:39.669Z,69.30
2023-01-07T18:16:13.239Z,69.80
2023-01-07T18:18:41.360Z,70.40
2023-01-07T18:21:12.493Z,70.30
2023-01-07T18:23:40.646Z,71.53
2023-01-07T18:26:09.020Z,72.83
2023-01-07T18:28:37.134Z,73.37
2023-01-07T18:31:05.484Z,71.53
2023-01-07T18:33:35.447Z,71.40
2023-01-07T18:36:03.800Z,70.47
2023-01-07T18:38:31.970Z,69.40
2023-01-07T18:41:00.409Z,71.13
2023-01-07T18:43:28.543Z,69.50
2023-01-07T18:45:56.676Z,73.67
2023-01-07T18:48:25.407Z,71.57
2023-01-07T18:50:54.892Z,70.93
2023-01-07T18:53:26.713Z,72.00
2023-01-07T18:56:01.379Z,73.07
2023-01-07T18:58:29.781Z,72.23
2023-01-07T19:01:03.389Z,73.90
2023-01-07T19:03:31.619Z,72.30
2023-01-07T19:06:01.141Z,72.87
2023-01-07T19:08:29.426Z,72.10
2023-01-07T19:10:57.684Z,70.10
2023-01-07T19:13:25.787Z,69.67
2023-01-07T19:15:53.886Z,70.43
2023-01-07T19:18:21.969Z,71.33
2023-01-07T19:20:50.175Z,71.53
2023-01-07T19:23:19.776Z,73.73
2023-01-07T19:25:57.809Z,73.43
2023-01-07T19:28:26.090Z,72.90
2023-01-07T19:30:54.599Z,71.80
2023-01-07T19:33:22.980Z,71.70
2023-01-07T19:35:51.218Z,76.07
2023-01-07T19:38:20.656Z,76.00
2023-01-07T19:40:48.780Z,75.07
2023-01-07T19:43:16.869Z,75.87
2023-01-07T19:45:54.544Z,74.67
2023-01-07T19:48:22.941Z,74.97
2023-01-07T19:50:55.689Z,77.23
2023-01-07T19:53:25.147Z,76.57
2023-01-07T19:55:54.492Z,79.43
2023-01-07T19:58:22.740Z,79.20
2023-01-07T20:00:50.954Z,78.00
2023-01-07T20:03:19.026Z,84.13
2023-01-07T20:05:47.088Z,82.60
2023-01-07T20:08:15.200Z,80.73
2023-01-07T20:10:44.657Z,83.70
2023-01-07T20:13:12.780Z,80.60
2023-01-07T20:15:40.802Z,80.80
2023-01-07T20:18:08.846Z,82.50
2023-01-07T20:20:36.904Z,84.13
2023-01-07T20:23:05.069Z,83.07
2023-01-07T20:25:33.254Z,86.33
2023-01-07T20:28:02.754Z,84.47
2023-01-07T20:30:30.809Z,85.83
2023-01-07T20:32:58.923Z,88.90
2023-01-07T20:35:26.980Z,87.87
2023-01-07T20:37:55.139Z,91.20
2023-01-07T20:40:23.304Z,88.73
2023-01-07T20:42:51.361Z,88.10
2023-01-07T20:45:20.862Z,88.37
2023-01-07T20:47:48.946Z,88.70
2023-01-07T20:50:18.430Z,88.63
2023-01-07T20:52:46.514Z,87.13
2023-01-07T20:55:14.652Z,86.43
2023-01-07T20:57:42.809Z,88.13
2023-01-07T21:00:12.546Z,88.43
2023-01-07T21:02:42.098Z,88.80
2023-01-07T21:05:10.693Z,86.30
2023-01-07T21:07:38.733Z,90.43
2023-01-07T21:10:07.731Z,86.03
2023-01-07T21:12:35.797Z,86.23
2023-01-07T21:15:04.297Z,89.83
2023-01-07T21:17:32.463Z,94.23
2023-01-07T21:20:01.903Z,94.70
2023-01-07T21:22:30.125Z,90.10
2023-01-07T21:24:58.216Z,85.43
2023-01-07T21:27:26.429Z,86.03
2023-01-07T21:29:54.481Z,88.97
2023-01-07T21:32:22.574Z,87.43
2023-01-07T21:34:50.683Z,87.50
2023-01-07T21:37:20.295Z,92.93
2023-01-07T21:39:51.420Z,87.37
2023-01-07T21:42:19.728Z,85.30
2023-01-07T21:44:47.784Z,85.57
2023-01-07T21:47:15.903Z,85.83
2023-01-07T21:49:44.299Z,90.73
2023-01-07T21:52:12.542Z,84.30
2023-01-07T21:54:42.015Z,86.40
2023-01-07T21:57:10.117Z,82.93
2023-01-07T21:59:38.173Z,83.67
2023-01-07T22:02:06.521Z,85.87
2023-01-07T22:04:35.009Z,88.93
2023-01-07T22:07:03.098Z,88.47
2023-01-07T22:09:31.157Z,84.30
2023-01-07T22:12:00.694Z,82.97
2023-01-07T22:14:28.922Z,82.47
2023-01-07T22:16:57.097Z,85.80
2023-01-07T22:19:25.995Z,84.57
2023-01-07T22:21:54.159Z,81.83
2023-01-07T22:24:22.225Z,81.37
2023-01-07T22:26:50.333Z,80.87
2023-01-07T22:29:19.947Z,83.70
2023-01-07T22:31:51.082Z,83.33
2023-01-07T22:34:20.110Z,86.70
2023-01-07T22:36:54.415Z,87.50
2023-01-07T22:39:25.816Z,86.37
2023-01-07T22:41:59.250Z,88.67
2023-01-07T22:44:34.967Z,91.10
2023-01-07T22:47:04.350Z,89.43
2023-01-07T22:49:33.422Z,95.10
2023-01-07T22:52:01.743Z,90.33
2023-01-07T22:54:30.262Z,89.90
2023-01-07T22:57:01.240Z,91.10
2023-01-07T22:59:30.834Z,89.13
2023-01-07T23:01:58.893Z,84.23
2023-01-07T23:04:27.074Z,83.43
2023-01-07T23:06:55.265Z,85.33
2023-01-07T23:09:23.407Z,88.10
2023-01-07T23:11:51.986Z,84.87
2023-01-07T23:14:22.192Z,84.87
2023-01-07T23:16:52.976Z,80.07
2023-01-07T23:19:21.703Z,80.30
2023-01-07T23:21:51.432Z,80.80
2023-01-07T23:24:19.881Z,82.03
2023-01-07T23:26:49.271Z,83.57
2023-01-07T23:29:17.555Z,80.33
2023-01-07T23:31:45.801Z,79.57
2023-01-07T23:34:16.492Z,79.00
2023-01-07T23:36:44.643Z,78.87
2023-01-07T23:39:13.041Z,77.03
2023-01-07T23:41:41.252Z,78.90
2023-01-07T23:44:09.342Z,77.17
2023-01-07T23:46:37.626Z,80.63
2023-01-07T23:49:05.945Z,79.43
2023-01-07T23:51:35.451Z,72.87
2023-01-07T23:54:03.497Z,72.50
2023-01-07T23:56:31.723Z,75.23
2023-01-07T23:59:02.775Z,73.87
